createdAt,value
2019-03-06T00:00:33.710Z,1.55
2019-03-06T00:03:05.908Z,1.50
2019-03-06T00:05:38.440Z,1.92
2019-03-06T00:08:11.103Z,1.62
2019-03-06T00:10:43.579Z,2.05
2019-03-06T00:13:15.985Z,1.87
2019-03-06T00:15:48.902Z,1.75
2019-03-06T00:18:21.330Z,1.60
2019-03-06T00:20:54.419Z,1.80
2019-03-06T00:23:26.900Z,2.02
2019-03-06T00:26:00.357Z,3.50
2019-03-06T00:28:32.900Z,1.90
2019-03-06T00:31:06.335Z,2.92
2019-03-06T00:34:05.460Z,1.47
2019-03-06T00:36:37.873Z,1.70
2019-03-06T00:39:11.352Z,4.12
2019-03-06T00:41:46.370Z,1.72
2019-03-06T00:44:18.888Z,1.50
2019-03-06T00:46:51.927Z,1.92
2019-03-06T00:49:24.113Z,3.45
2019-03-06T00:51:56.922Z,1.80
2019-03-06T00:54:29.051Z,1.60
2019-03-06T00:57:01.513Z,2.15
2019-03-06T00:59:33.856Z,1.77
2019-03-06T01:02:07.105Z,1.50
2019-03-06T01:04:39.482Z,1.70
2019-03-06T01:07:11.879Z,1.87
2019-03-06T01:09:44.339Z,1.87
2019-03-06T01:12:16.727Z,1.82
2019-03-06T01:17:20.125Z,1.60
2019-03-06T01:19:52.922Z,1.60
2019-03-06T01:22:25.895Z,1.85
2019-03-06T01:24:58.567Z,1.42
2019-03-06T01:27:31.349Z,1.70
2019-03-06T01:30:04.024Z,1.75
2019-03-06T01:32:37.006Z,1.82
2019-03-06T01:35:34.435Z,1.70
2019-03-06T01:38:29.327Z,2.10
2019-03-06T01:41:06.491Z,2.17
2019-03-06T01:43:49.827Z,1.80
2019-03-06T01:46:22.033Z,2.25
2019-03-06T01:48:54.327Z,1.60
2019-03-06T01:51:26.548Z,2.15
2019-03-06T01:53:58.878Z,2.62
2019-03-06T01:56:30.937Z,2.27
2019-03-06T01:59:03.101Z,1.92
2019-03-06T02:01:35.425Z,1.85
2019-03-06T02:06:39.084Z,1.60
2019-03-06T02:09:14.332Z,1.70
2019-03-06T02:11:46.916Z,1.80
2019-03-06T02:14:18.910Z,1.85
2019-03-06T02:16:50.982Z,2.72
2019-03-06T02:19:23.331Z,1.90
2019-03-06T02:21:55.869Z,2.00
2019-03-06T02:24:28.017Z,1.72
2019-03-06T02:27:00.333Z,1.65
2019-03-06T02:29:32.858Z,1.95
2019-03-06T02:32:04.909Z,2.33
2019-03-06T02:34:37.913Z,1.90
2019-03-06T02:37:10.105Z,1.70
2019-03-06T02:39:42.885Z,1.90
2019-03-06T02:42:14.900Z,2.00
2019-03-06T02:44:48.135Z,1.60
2019-03-06T02:47:20.462Z,1.80
2019-03-06T02:49:53.054Z,1.82
2019-03-06T02:52:25.773Z,1.77
2019-03-06T02:54:59.403Z,1.77
2019-03-06T02:57:31.894Z,2.00
2019-03-06T03:00:26.333Z,1.87
2019-03-06T03:03:08.347Z,2.27
2019-03-06T03:05:50.031Z,1.77
2019-03-06T03:08:22.435Z,1.77
2019-03-06T03:10:55.102Z,1.77
2019-03-06T03:13:28.006Z,1.75
2019-03-06T03:16:00.904Z,1.98
2019-03-06T03:18:33.331Z,1.75
2019-03-06T03:21:05.889Z,1.50
2019-03-06T03:23:38.342Z,1.82
2019-03-06T03:26:10.931Z,1.67
2019-03-06T03:28:43.329Z,1.75
2019-03-06T03:31:15.892Z,1.80
2019-03-06T03:33:48.328Z,1.90
2019-03-06T03:36:20.886Z,2.27
2019-03-06T03:38:53.068Z,2.05
2019-03-06T03:41:25.544Z,1.90
2019-03-06T03:44:00.861Z,2.00
2019-03-06T03:46:32.907Z,1.85
2019-03-06T03:49:04.896Z,1.70
2019-03-06T03:51:38.360Z,2.20
2019-03-06T03:54:11.372Z,2.70
2019-03-06T03:56:43.865Z,1.80
2019-03-06T03:59:16.086Z,2.25
2019-03-06T04:01:48.882Z,2.00
2019-03-06T04:04:20.874Z,1.70
2019-03-06T04:06:53.090Z,2.10
2019-03-06T04:09:25.284Z,1.60
2019-03-06T04:11:57.906Z,1.47
2019-03-06T04:14:29.923Z,1.70
2019-03-06T04:17:02.116Z,1.72
2019-03-06T04:19:34.538Z,2.08
2019-03-06T04:22:07.052Z,1.92
2019-03-06T04:24:39.335Z,1.98
2019-03-06T04:27:11.901Z,1.75
2019-03-06T04:29:44.900Z,1.67
2019-03-06T04:32:16.896Z,1.90
2019-03-06T04:34:48.874Z,3.25
2019-03-06T04:37:21.040Z,2.25
2019-03-06T04:39:53.296Z,2.37
2019-03-06T04:42:26.344Z,1.98
2019-03-06T04:44:59.351Z,1.90
2019-03-06T04:47:31.908Z,2.72
2019-03-06T04:50:04.332Z,2.50
2019-03-06T04:52:36.939Z,2.80
2019-03-06T04:55:09.361Z,2.70
2019-03-06T04:57:41.904Z,2.37
2019-03-06T05:00:15.936Z,3.10
2019-03-06T05:02:48.528Z,2.80
2019-03-06T05:05:20.889Z,2.72
2019-03-06T05:07:53.369Z,2.95
2019-03-06T05:10:25.926Z,2.55
2019-03-06T05:12:58.003Z,3.75
2019-03-06T05:15:30.314Z,3.15
2019-03-06T05:18:17.855Z,3.15
2019-03-06T05:20:50.098Z,2.62
2019-03-06T05:23:22.858Z,3.15
2019-03-06T05:25:55.362Z,4.33
2019-03-06T05:28:27.964Z,3.67
2019-03-06T05:31:00.328Z,2.50
2019-03-06T05:33:32.951Z,5.92
2019-03-06T05:37:37.582Z,2.92
2019-03-06T05:40:09.828Z,7.17
2019-03-06T05:42:41.937Z,4.47
2019-03-06T05:45:15.792Z,4.72
2019-03-06T05:47:48.284Z,2.98
2019-03-06T05:50:20.667Z,6.28
2019-03-06T05:52:52.704Z,3.67
2019-03-06T05:57:56.451Z,5.75
2019-03-06T06:00:29.777Z,3.00
2019-03-06T06:05:33.356Z,3.25
2019-03-06T06:08:05.863Z,5.12
2019-03-06T06:10:38.872Z,4.47
2019-03-06T06:13:11.296Z,3.60
2019-03-06T06:15:43.834Z,4.53
2019-03-06T06:18:16.163Z,4.20
2019-03-06T06:20:51.524Z,3.90
2019-03-06T06:23:42.533Z,3.85
2019-03-06T06:26:14.886Z,4.58
2019-03-06T06:28:46.907Z,4.40
2019-03-06T06:31:19.339Z,4.03
2019-03-06T06:33:51.891Z,3.70
2019-03-06T06:36:24.320Z,3.62
2019-03-06T06:38:56.850Z,4.25
2019-03-06T06:41:29.853Z,3.25
2019-03-06T06:44:01.855Z,3.55
2019-03-06T06:46:34.079Z,4.72
2019-03-06T06:49:06.326Z,3.55
2019-03-06T06:53:07.877Z,3.47
2019-03-06T06:57:10.850Z,3.55
2019-03-06T07:00:59.120Z,3.20
2019-03-06T07:04:53.321Z,2.85
2019-03-06T07:07:45.719Z,4.20
2019-03-06T07:13:35.479Z,3.10
2019-03-06T07:16:25.496Z,3.00
2019-03-06T07:19:22.494Z,2.33
2019-03-06T07:22:16.389Z,3.25
2019-03-06T07:25:19.669Z,3.47
2019-03-06T07:27:59.319Z,2.83
2019-03-06T07:30:50.285Z,1.80
2019-03-06T07:33:47.494Z,1.75
2019-03-06T07:36:37.416Z,1.75
2019-03-06T07:39:36.314Z,2.90
2019-03-06T07:42:29.784Z,3.35
2019-03-06T07:48:52.487Z,4.12
2019-03-06T07:51:46.491Z,2.27
2019-03-06T07:54:46.484Z,2.42
2019-03-06T07:57:26.516Z,2.90
2019-03-06T07:59:59.333Z,1.82
2019-03-06T08:03:22.882Z,3.12
2019-03-06T08:05:55.090Z,2.20
2019-03-06T08:08:27.314Z,2.87
2019-03-06T08:13:44.461Z,3.20
2019-03-06T08:16:31.315Z,2.55
2019-03-06T08:19:20.326Z,3.45
2019-03-06T08:22:11.326Z,3.22
2019-03-06T08:25:01.319Z,2.95
2019-03-06T08:27:33.975Z,2.55
2019-03-06T08:30:07.542Z,1.37
2019-03-06T08:32:40.029Z,1.52
2019-03-06T08:35:12.904Z,2.83
2019-03-06T08:37:45.444Z,1.25
2019-03-06T08:40:17.868Z,1.55
2019-03-06T08:42:50.010Z,2.90
2019-03-06T08:45:24.402Z,1.80
2019-03-06T08:48:15.096Z,1.92
2019-03-06T08:51:00.636Z,1.92
2019-03-06T08:53:38.332Z,2.27
2019-03-06T08:56:16.500Z,2.40
2019-03-06T08:59:10.563Z,2.10
2019-03-06T09:02:04.619Z,2.10
2019-03-06T09:04:57.774Z,2.08
2019-03-06T09:07:47.382Z,1.90
2019-03-06T09:10:44.464Z,1.15
2019-03-06T09:13:25.834Z,1.30
2019-03-06T09:16:19.488Z,1.67
2019-03-06T09:19:19.804Z,1.10
2019-03-06T09:21:58.288Z,1.20
2019-03-06T09:24:46.341Z,1.62
2019-03-06T09:27:26.318Z,3.02
2019-03-06T09:30:15.719Z,2.85
2019-03-06T09:32:59.616Z,1.07
2019-03-06T09:35:50.630Z,1.30
2019-03-06T09:38:47.439Z,0.90
2019-03-06T09:41:35.181Z,1.75
2019-03-06T09:44:13.320Z,1.42
2019-03-06T09:47:03.435Z,1.17
2019-03-06T09:49:41.439Z,1.35
2019-03-06T09:52:35.522Z,0.80
2019-03-06T09:55:15.459Z,1.62
2019-03-06T09:57:58.399Z,1.20
2019-03-06T10:00:58.511Z,1.20
2019-03-06T10:03:49.493Z,1.02
2019-03-06T10:06:39.450Z,1.25
2019-03-06T10:09:33.354Z,0.90
2019-03-06T10:12:27.468Z,1.10
2019-03-06T10:15:17.523Z,1.15
2019-03-06T10:17:54.463Z,1.10
2019-03-06T10:20:26.870Z,0.88
2019-03-06T10:22:59.592Z,1.05
2019-03-06T10:25:32.116Z,1.05
2019-03-06T10:30:38.023Z,0.95
2019-03-06T10:33:10.324Z,0.80
2019-03-06T10:35:42.884Z,1.07
2019-03-06T10:38:16.822Z,1.92
2019-03-06T10:40:49.496Z,0.95
2019-03-06T10:43:23.660Z,0.90
2019-03-06T10:45:55.823Z,1.07
2019-03-06T10:48:27.912Z,0.88
2019-03-06T10:51:00.324Z,1.40
2019-03-06T10:53:41.045Z,2.52
2019-03-06T10:56:05.652Z,1.07
2019-03-06T11:01:08.130Z,1.30
2019-03-06T11:03:45.295Z,3.72
2019-03-06T11:06:18.638Z,1.00
2019-03-06T11:08:51.493Z,1.20
2019-03-06T11:11:24.005Z,0.90
2019-03-06T11:14:05.764Z,1.17
2019-03-06T11:16:33.401Z,1.00
2019-03-06T11:19:07.657Z,0.82
2019-03-06T11:21:39.824Z,0.90
2019-03-06T11:24:11.912Z,0.90
2019-03-06T11:26:44.865Z,0.80
2019-03-06T11:29:19.311Z,2.02
2019-03-06T11:31:51.331Z,1.10
2019-03-06T11:34:23.991Z,1.00
2019-03-06T11:36:56.289Z,0.95
2019-03-06T11:39:28.890Z,1.40
2019-03-06T11:42:01.074Z,1.95
2019-03-06T11:44:33.913Z,1.65
2019-03-06T11:47:06.052Z,1.27
2019-03-06T11:49:38.876Z,0.90
2019-03-06T11:52:10.903Z,0.88
2019-03-06T11:54:43.345Z,1.15
2019-03-06T11:57:16.016Z,0.90
2019-03-06T11:59:48.588Z,0.95
2019-03-06T12:02:21.069Z,0.85
2019-03-06T12:04:53.850Z,1.85
2019-03-06T12:07:26.063Z,1.98
2019-03-06T12:09:59.075Z,1.95
2019-03-06T12:12:32.328Z,2.33
2019-03-06T12:15:04.860Z,0.90
2019-03-06T12:17:37.408Z,1.67
2019-03-06T12:20:10.338Z,0.80
2019-03-06T12:22:43.206Z,2.20
2019-03-06T12:25:16.085Z,0.95
2019-03-06T12:27:49.324Z,1.00
2019-03-06T12:30:21.918Z,0.90
2019-03-06T12:32:53.881Z,0.80
2019-03-06T12:35:25.887Z,1.10
2019-03-06T12:37:58.331Z,1.50
2019-03-06T12:40:30.821Z,0.80
2019-03-06T12:43:03.012Z,1.25
2019-03-06T12:45:35.482Z,1.47
2019-03-06T12:48:09.859Z,1.65
2019-03-06T12:50:42.475Z,0.80
2019-03-06T12:53:14.856Z,0.80
2019-03-06T12:55:47.360Z,0.95
2019-03-06T12:58:19.906Z,0.72
2019-03-06T13:00:51.999Z,0.90
2019-03-06T13:03:33.219Z,1.10
2019-03-06T13:06:07.935Z,0.80
2019-03-06T13:08:49.875Z,1.42
2019-03-06T13:11:26.927Z,0.80
2019-03-06T13:14:04.313Z,1.80
2019-03-06T13:16:41.194Z,1.57
2019-03-06T13:19:25.076Z,0.90
2019-03-06T13:22:10.742Z,1.20
2019-03-06T13:24:41.553Z,0.98
2019-03-06T13:27:17.576Z,1.20
2019-03-06T13:29:57.952Z,0.90
2019-03-06T13:32:49.215Z,1.17
2019-03-06T13:35:30.492Z,0.80
2019-03-06T13:38:12.050Z,0.90
2019-03-06T13:40:48.924Z,0.93
2019-03-06T13:43:25.727Z,0.80
2019-03-06T13:46:06.954Z,0.78
2019-03-06T13:48:52.265Z,0.82
2019-03-06T13:51:51.273Z,0.90
2019-03-06T13:54:30.800Z,1.00
2019-03-06T13:57:18.815Z,1.05
2019-03-06T14:00:00.501Z,0.88
2019-03-06T14:02:45.870Z,1.35
2019-03-06T14:05:26.711Z,1.10
2019-03-06T14:08:07.146Z,1.77
2019-03-06T14:10:49.652Z,0.98
2019-03-06T14:16:08.829Z,1.10
2019-03-06T14:18:53.403Z,0.70
2019-03-06T14:21:32.224Z,1.40
2019-03-06T14:24:14.855Z,0.88
2019-03-06T14:27:04.633Z,1.00
2019-03-06T14:32:34.840Z,0.70
2019-03-06T14:35:17.842Z,0.80
2019-03-06T14:37:53.133Z,1.37
2019-03-06T14:40:39.270Z,0.82
2019-03-06T14:43:23.487Z,1.00
2019-03-06T14:46:06.904Z,0.82
2019-03-06T14:48:50.408Z,0.82
2019-03-06T14:51:29.911Z,1.72
2019-03-06T14:54:15.650Z,1.57
2019-03-06T14:59:28.367Z,0.80
2019-03-06T15:02:08.649Z,0.80
2019-03-06T15:07:27.479Z,1.10
2019-03-06T15:09:59.868Z,0.80
2019-03-06T15:12:33.025Z,1.95
2019-03-06T15:15:05.856Z,0.80
2019-03-06T15:17:38.361Z,0.78
2019-03-06T15:20:17.849Z,0.88
2019-03-06T15:22:51.039Z,0.80
2019-03-06T15:25:24.301Z,1.20
2019-03-06T15:27:56.875Z,0.95
2019-03-06T15:30:29.333Z,2.27
2019-03-06T15:33:01.880Z,1.25
2019-03-06T15:35:34.317Z,1.82
2019-03-06T15:38:10.351Z,2.55
2019-03-06T15:40:42.964Z,1.87
2019-03-06T15:43:19.707Z,2.80
2019-03-06T15:48:23.310Z,0.90
2019-03-06T15:50:55.858Z,1.17
2019-03-06T15:53:28.094Z,0.80
2019-03-06T15:56:00.875Z,0.90
2019-03-06T15:58:33.486Z,1.37
2019-03-06T16:01:05.887Z,1.30
2019-03-06T16:03:38.106Z,1.40
2019-03-06T16:06:19.925Z,1.32
2019-03-06T16:08:44.870Z,1.35
2019-03-06T16:11:19.701Z,1.57
2019-03-06T16:13:51.861Z,1.22
2019-03-06T16:16:24.323Z,1.47
2019-03-06T16:18:56.902Z,0.90
2019-03-06T16:21:29.059Z,2.60
2019-03-06T16:24:01.564Z,3.90
2019-03-06T16:26:34.328Z,2.37
2019-03-06T16:29:07.090Z,1.52
2019-03-06T16:31:39.884Z,1.85
2019-03-06T16:34:12.327Z,2.80
2019-03-06T16:36:44.871Z,3.80
2019-03-06T16:39:17.657Z,3.45
2019-03-06T16:44:20.999Z,3.87
2019-03-06T16:46:53.339Z,1.60
2019-03-06T16:49:26.414Z,1.77
2019-03-06T16:51:58.860Z,2.33
2019-03-06T16:54:31.006Z,3.37
2019-03-06T16:57:03.929Z,2.08
2019-03-06T16:59:36.319Z,2.37
2019-03-06T17:02:09.290Z,2.02
2019-03-06T17:04:41.862Z,1.50
2019-03-06T17:07:14.540Z,1.60
2019-03-06T17:09:46.871Z,3.10
2019-03-06T17:12:19.389Z,2.98
2019-03-06T17:14:52.144Z,2.10
2019-03-06T17:17:24.803Z,3.70
2019-03-06T17:19:57.481Z,2.15
2019-03-06T17:22:29.826Z,1.95
2019-03-06T17:25:01.935Z,1.62
2019-03-06T17:27:34.999Z,1.85
2019-03-06T17:30:10.128Z,2.55
2019-03-06T17:32:59.325Z,1.80
2019-03-06T17:35:32.876Z,2.25
2019-03-06T17:38:05.489Z,1.32
2019-03-06T17:40:37.977Z,1.72
2019-03-06T17:43:10.496Z,1.70
2019-03-06T17:45:43.331Z,2.60
2019-03-06T17:48:15.854Z,1.57
2019-03-06T17:50:48.064Z,1.47
2019-03-06T17:53:21.110Z,2.10
2019-03-06T17:55:53.956Z,3.75
2019-03-06T17:58:26.339Z,2.25
2019-03-06T18:01:07.459Z,3.35
2019-03-06T18:03:51.627Z,2.10
2019-03-06T18:06:24.314Z,1.67
2019-03-06T18:08:56.973Z,1.77
2019-03-06T18:11:29.464Z,1.40
2019-03-06T18:14:01.865Z,2.85
2019-03-06T18:16:34.090Z,1.02
2019-03-06T18:19:06.880Z,1.50
2019-03-06T18:21:39.323Z,1.40
2019-03-06T18:24:11.776Z,1.30
2019-03-06T18:26:44.332Z,1.25
2019-03-06T18:29:17.089Z,1.50
2019-03-06T18:31:49.888Z,4.00
2019-03-06T18:34:21.865Z,2.80
2019-03-06T18:36:53.960Z,1.50
2019-03-06T18:39:26.311Z,2.08
2019-03-06T18:41:59.588Z,3.08
2019-03-06T18:47:02.962Z,5.97
2019-03-06T18:49:35.957Z,10.10
2019-03-06T18:52:08.443Z,3.00
2019-03-06T18:54:40.866Z,6.83
2019-03-06T18:57:13.454Z,5.83
2019-03-06T18:59:45.840Z,23.85
2019-03-06T19:02:18.063Z,18.32
2019-03-06T19:04:50.856Z,12.50
2019-03-06T19:07:23.164Z,11.60
2019-03-06T19:09:55.843Z,16.73
2019-03-06T19:12:28.641Z,8.75
2019-03-06T19:17:33.941Z,8.25
2019-03-06T19:20:06.064Z,8.60
2019-03-06T19:27:56.784Z,56.87
2019-03-06T19:32:27.813Z,16.60
2019-03-06T19:34:59.934Z,23.10
2019-03-06T19:37:32.252Z,36.48
2019-03-06T19:40:05.382Z,27.20
2019-03-06T19:42:37.824Z,23.55
2019-03-06T19:45:11.800Z,23.57
2019-03-06T19:47:43.990Z,21.50
2019-03-06T19:50:20.337Z,18.42
2019-03-06T19:52:52.800Z,21.60
2019-03-06T19:55:25.753Z,20.35
2019-03-06T19:58:01.662Z,13.15
2019-03-06T20:00:33.842Z,18.62
2019-03-06T20:03:07.501Z,18.40
2019-03-06T20:05:41.225Z,20.90
2019-03-06T20:08:15.501Z,12.73
2019-03-06T20:10:47.891Z,14.03
2019-03-06T20:13:20.739Z,14.38
2019-03-06T20:15:52.994Z,16.32
2019-03-06T20:18:25.798Z,16.10
2019-03-06T20:20:58.482Z,9.05
2019-03-06T20:23:31.581Z,12.58
2019-03-06T20:28:35.193Z,8.23
2019-03-06T20:31:07.769Z,18.45
2019-03-06T20:33:39.810Z,8.85
2019-03-06T20:36:13.313Z,24.57
2019-03-06T20:38:45.904Z,9.50
2019-03-06T20:41:19.357Z,14.80
2019-03-06T20:43:52.473Z,13.55
2019-03-06T20:46:27.837Z,15.98
2019-03-06T20:49:00.331Z,9.98
2019-03-06T20:51:32.871Z,11.05
2019-03-06T20:54:05.485Z,8.70
2019-03-06T20:56:37.899Z,9.95
2019-03-06T20:59:09.998Z,8.73
2019-03-06T21:01:42.340Z,8.90
2019-03-06T21:04:15.041Z,6.87
2019-03-06T21:06:47.834Z,13.40
2019-03-06T21:09:19.914Z,8.88
2019-03-06T21:11:53.018Z,5.92
2019-03-06T21:14:25.855Z,5.00
2019-03-06T21:16:59.308Z,9.03
2019-03-06T21:19:31.960Z,6.67
2019-03-06T21:22:04.851Z,5.85
2019-03-06T21:24:37.028Z,6.05
2019-03-06T21:27:10.508Z,9.08
2019-03-06T21:29:42.887Z,5.67
2019-03-06T21:32:15.338Z,5.33
2019-03-06T21:34:48.344Z,11.35
2019-03-06T21:37:20.905Z,6.62
2019-03-06T21:39:53.303Z,5.03
2019-03-06T21:42:25.885Z,9.03
2019-03-06T21:44:58.917Z,9.98
2019-03-06T21:47:31.840Z,6.28
2019-03-06T21:50:04.098Z,6.47
2019-03-06T21:59:36.101Z,7.37
2019-03-06T22:02:08.873Z,4.42
2019-03-06T22:04:41.876Z,5.08
2019-03-06T22:07:14.487Z,7.20
2019-03-06T22:09:46.879Z,5.12
2019-03-06T22:12:19.118Z,5.60
2019-03-06T22:14:51.879Z,3.50
2019-03-06T22:17:24.101Z,3.47
2019-03-06T22:19:56.909Z,3.70
2019-03-06T22:22:29.100Z,3.98
2019-03-06T22:25:01.435Z,7.30
2019-03-06T22:27:34.321Z,2.77
2019-03-06T22:30:07.499Z,4.62
2019-03-06T22:32:39.907Z,3.20
2019-03-06T22:35:12.075Z,5.40
2019-03-06T22:37:46.524Z,3.37
2019-03-06T22:40:19.337Z,10.08
2019-03-06T22:42:52.330Z,3.83
2019-03-06T22:45:24.875Z,3.95
2019-03-06T22:47:56.866Z,4.25
2019-03-06T22:50:28.975Z,4.45
2019-03-06T22:53:01.096Z,5.62
2019-03-06T22:55:33.480Z,3.25
2019-03-06T22:58:05.910Z,3.35
2019-03-06T23:01:01.353Z,5.95
2019-03-06T23:03:34.901Z,4.30
2019-03-06T23:06:07.110Z,4.65
2019-03-06T23:08:43.041Z,2.70
2019-03-06T23:11:15.462Z,2.15
2019-03-06T23:13:47.889Z,3.75
2019-03-06T23:16:20.379Z,4.22
2019-03-06T23:18:53.049Z,2.37
2019-03-06T23:21:25.910Z,5.97
2019-03-06T23:23:59.496Z,4.85
2019-03-06T23:26:32.037Z,4.08
2019-03-06T23:29:04.882Z,3.33
2019-03-06T23:31:37.483Z,2.70
2019-03-06T23:34:10.252Z,2.25
2019-03-06T23:36:43.479Z,3.58
2019-03-06T23:39:15.895Z,3.95
2019-03-06T23:41:48.003Z,5.25
2019-03-06T23:44:20.709Z,3.50
2019-03-06T23:46:52.996Z,3.17
2019-03-06T23:49:26.941Z,2.25
2019-03-06T23:52:05.363Z,4.15
2019-03-06T23:57:11.421Z,3.52
2019-03-06T23:59:43.889Z,1.98
